Terminal Aerodrome Forecast
Issued by NWS Paducah, KY

Home | Current Version | Previous Version | Text Only | Print | Product List | Glossary Off
Versions: 1 2 3 4 5 6 7 8 9 10 11 12 13

000
FTUS43 KPAH 271720
TAFEVV
TAF
KEVV 271720Z 2718/2818 36010KT P6SM SCT025 BKN040
      TEMPO 2718/2720 -SN BKN025
     FM280100 01004KT P6SM SCT250=

USA.gov is the U.S. government's official web portal to all federal, state and local government web resources and services.